Time;durP1;ratioP1;P1;durP2;ratioP2;P2;SDS_P1;SDS_P2;PMS_P1;PMS_P2;Temp;Humidity;BMP_temperature;BMP_pressure;BME280_temperature;BME280_humidity;BME280_pressure;Samples;Min_cycle;Max_cycle;Signal;HPM_P1;HPM_P2
2022/03/25 00:00:06;;;;;;;;;;;6.40;99.90;;;;;;5093123;28;20374;-46
2022/03/25 00:02:32;;;;;;;;;;;6.40;99.90;;;;;;5093383;28;19912;-46
2022/03/25 00:04:57;;;;;;;;;;;6.50;99.90;;;;;;5093559;28;19908;-45
2022/03/25 00:07:23;;;;;;;;;;;6.50;99.90;;;;;;5093561;28;19908;-46
2022/03/25 00:09:48;;;;;;;;;;;6.60;99.90;;;;;;5097751;28;19918;-45
2022/03/25 00:12:14;;;;;;;;;;;6.60;99.90;;;;;;5097124;28;19908;-45
2022/03/25 00:14:39;;;;;;;;;;;6.60;99.90;;;;;;5097640;28;20003;-45
2022/03/25 00:17:05;;;;;;;;;;;6.60;99.90;;;;;;5097466;28;19931;-46
2022/03/25 00:19:31;;;;;;;;;;;6.60;99.90;;;;;;5096993;28;19924;-45
2022/03/25 00:21:56;;;;;;;;;;;6.70;99.90;;;;;;5097442;28;19912;-45
2022/03/25 00:24:24;;;;;;;;;;;6.70;99.90;;;;;;5097562;28;19962;-46
2022/03/25 00:26:49;;;;;;;;;;;6.60;99.90;;;;;;5096839;28;19912;-46
2022/03/25 00:29:15;;;;;;;;;;;6.60;99.90;;;;;;5097415;28;19971;-45
2022/03/25 00:31:40;;;;;;;;;;;6.60;99.90;;;;;;5096919;28;19920;-46
2022/03/25 00:34:07;;;;;;;;;;;6.50;99.90;;;;;;5096890;28;19927;-45
2022/03/25 00:36:33;;;;;;;;;;;6.40;99.90;;;;;;5097222;28;19908;-45
2022/03/25 00:38:58;;;;;;;;;;;6.30;99.90;;;;;;5096960;28;19920;-47
2022/03/25 00:41:24;;;;;;;;;;;6.20;99.90;;;;;;5096658;28;20546;-45
2022/03/25 00:43:49;;;;;;;;;;;6.10;99.90;;;;;;5096902;28;19908;-46
2022/03/25 00:46:15;;;;;;;;;;;6.00;99.90;;;;;;5097039;28;19915;-48
2022/03/25 00:48:42;;;;;;;;;;;5.90;99.90;;;;;;5096469;28;19909;-47
2022/03/25 00:51:08;;;;;;;;;;;5.80;99.90;;;;;;5097075;28;20278;-46
2022/03/25 00:53:34;;;;;;;;;;;5.80;99.90;;;;;;5097023;28;19915;-46
2022/03/25 00:56:01;;;;;;;;;;;5.70;99.90;;;;;;5096294;28;20254;-46
2022/03/25 00:58:27;;;;;;;;;;;5.50;99.90;;;;;;5096731;28;20432;-47
2022/03/25 01:00:53;;;;;;;;;;;5.50;99.90;;;;;;5096727;28;19965;-46
2022/03/25 01:03:18;;;;;;;;;;;5.40;99.90;;;;;;5096169;28;20039;-46
2022/03/25 01:05:43;;;;;;;;;;;5.40;99.90;;;;;;5096583;28;19954;-46
2022/03/25 01:08:09;;;;;;;;;;;5.30;99.90;;;;;;5096573;28;19909;-48
2022/03/25 01:10:35;;;;;;;;;;;5.20;99.90;;;;;;5096119;28;20007;-47
2022/03/25 01:13:01;;;;;;;;;;;5.10;99.90;;;;;;5096446;28;20339;-46
2022/03/25 01:15:26;;;;;;;;;;;5.00;99.90;;;;;;5096133;28;19912;-48
2022/03/25 01:17:52;;;;;;;;;;;4.90;99.90;;;;;;5096187;28;19920;-47
2022/03/25 01:20:17;;;;;;;;;;;4.90;99.90;;;;;;5094992;28;19908;-46
2022/03/25 01:22:43;;;;;;;;;;;4.80;99.90;;;;;;5095814;28;20410;-46
2022/03/25 01:25:09;;;;;;;;;;;4.60;99.90;;;;;;5096295;28;19912;-47
2022/03/25 01:27:35;;;;;;;;;;;4.50;99.90;;;;;;5096252;28;19914;-46
2022/03/25 01:30:00;;;;;;;;;;;4.30;99.90;;;;;;5095529;28;19912;-47
2022/03/25 01:32:26;;;;;;;;;;;4.20;99.90;;;;;;5095861;28;19924;-46
2022/03/25 01:34:51;;;;;;;;;;;4.20;99.90;;;;;;5096046;28;19908;-47
2022/03/25 01:37:17;;;;;;;;;;;4.10;99.90;;;;;;5095516;28;19993;-45
2022/03/25 01:39:43;;;;;;;;;;;4.10;99.90;;;;;;5096006;28;19908;-47
2022/03/25 01:42:10;;;;;;;;;;;4.00;99.90;;;;;;5095959;28;19908;-46
2022/03/25 01:44:36;;;;;;;;;;;3.90;99.90;;;;;;5095332;28;19912;-47
2022/03/25 01:47:02;;;;;;;;;;;3.90;99.90;;;;;;5095944;28;20327;-46
2022/03/25 01:49:27;;;;;;;;;;;3.90;99.90;;;;;;5095797;28;19958;-46
2022/03/25 01:51:54;;;;;;;;;;;3.90;99.90;;;;;;5095355;28;19913;-46
2022/03/25 01:54:27;;;;;;;;;;;3.90;99.90;;;;;;5095763;28;20010;-46
2022/03/25 01:57:00;;;;;;;;;;;3.80;99.90;;;;;;5095644;28;20019;-46
2022/03/25 01:59:26;;;;;;;;;;;3.80;99.90;;;;;;5095040;28;20018;-46
2022/03/25 02:01:54;;;;;;;;;;;3.80;99.90;;;;;;5095479;28;20026;-46
2022/03/25 02:04:20;;;;;;;;;;;3.80;99.90;;;;;;5095501;28;20010;-46
2022/03/25 02:06:46;;;;;;;;;;;3.80;99.90;;;;;;5094978;28;19948;-47
2022/03/25 02:09:11;;;;;;;;;;;3.70;99.90;;;;;;5095480;28;19951;-47
2022/03/25 02:11:37;;;;;;;;;;;3.70;99.90;;;;;;5095230;28;19915;-46
2022/03/25 02:14:03;;;;;;;;;;;3.60;99.90;;;;;;5094859;28;19908;-46
2022/03/25 02:16:35;;;;;;;;;;;3.60;99.90;;;;;;5095380;28;19935;-46
2022/03/25 02:19:01;;;;;;;;;;;3.50;99.90;;;;;;5094659;28;20359;-46
2022/03/25 02:21:33;;;;;;;;;;;3.50;99.90;;;;;;5095249;28;19915;-46
2022/03/25 02:23:59;;;;;;;;;;;3.50;99.90;;;;;;5094982;28;19908;-45
2022/03/25 02:26:24;;;;;;;;;;;3.40;99.90;;;;;;5094623;28;19915;-46
2022/03/25 02:28:50;;;;;;;;;;;3.40;99.90;;;;;;5095018;28;19908;-46
2022/03/25 02:31:17;;;;;;;;;;;3.40;99.90;;;;;;5094368;28;19909;-46
2022/03/25 02:33:42;;;;;;;;;;;3.40;99.90;;;;;;5094373;28;19912;-46
2022/03/25 02:36:08;;;;;;;;;;;3.30;99.90;;;;;;5094909;28;20263;-46
2022/03/25 02:38:34;;;;;;;;;;;3.30;99.90;;;;;;5094805;28;19923;-46
2022/03/25 02:40:59;;;;;;;;;;;3.30;99.90;;;;;;5094398;28;19984;-45
2022/03/25 02:43:25;;;;;;;;;;;3.30;99.90;;;;;;5094834;28;19908;-47
2022/03/25 02:45:50;;;;;;;;;;;3.30;99.90;;;;;;5094708;28;19914;-47
2022/03/25 02:48:16;;;;;;;;;;;3.20;99.90;;;;;;5094246;28;20321;-46
2022/03/25 02:50:41;;;;;;;;;;;3.20;99.90;;;;;;5094697;28;19930;-45
2022/03/25 02:53:07;;;;;;;;;;;3.10;99.90;;;;;;5094604;28;19915;-46
2022/03/25 02:55:32;;;;;;;;;;;3.10;99.90;;;;;;5093979;28;19915;-46
2022/03/25 02:57:58;;;;;;;;;;;3.00;99.90;;;;;;5094296;28;19916;-46
2022/03/25 03:00:25;;;;;;;;;;;3.00;99.90;;;;;;5094416;28;19908;-46
2022/03/25 03:02:51;;;;;;;;;;;2.90;99.90;;;;;;5093868;28;19916;-46
2022/03/25 03:05:17;;;;;;;;;;;2.80;99.90;;;;;;5094387;28;19908;-46
2022/03/25 03:07:46;;;;;;;;;;;2.80;99.90;;;;;;5094252;28;19915;-46
2022/03/25 03:10:13;;;;;;;;;;;2.80;99.90;;;;;;5093929;28;20048;-46
2022/03/25 03:12:38;;;;;;;;;;;2.70;99.90;;;;;;5094167;28;20351;-46
2022/03/25 03:15:05;;;;;;;;;;;2.60;99.90;;;;;;5093640;28;19915;-45
2022/03/25 03:17:30;;;;;;;;;;;2.60;99.90;;;;;;5093992;28;20269;-45
2022/03/25 03:19:56;;;;;;;;;;;2.60;99.90;;;;;;5093997;28;20002;-46
2022/03/25 03:22:22;;;;;;;;;;;2.60;99.90;;;;;;5093535;28;19919;-46
2022/03/25 03:24:47;;;;;;;;;;;2.70;99.90;;;;;;5094010;28;19909;-46
2022/03/25 03:27:13;;;;;;;;;;;2.60;99.90;;;;;;5094063;28;19909;-46
2022/03/25 03:29:38;;;;;;;;;;;2.70;99.90;;;;;;5093465;28;19958;-46
2022/03/25 03:32:05;;;;;;;;;;;2.60;99.90;;;;;;5093773;28;19966;-46
2022/03/25 03:34:31;;;;;;;;;;;2.60;99.90;;;;;;5093929;28;19908;-47
2022/03/25 03:36:56;;;;;;;;;;;2.50;99.90;;;;;;5093360;28;19954;-45
2022/03/25 03:39:22;;;;;;;;;;;2.50;99.90;;;;;;5093805;28;20298;-45
2022/03/25 03:41:47;;;;;;;;;;;2.60;99.90;;;;;;5093390;28;19908;-46
2022/03/25 03:44:13;;;;;;;;;;;2.60;99.90;;;;;;5093000;28;19908;-46
2022/03/25 03:46:38;;;;;;;;;;;2.60;99.90;;;;;;5093836;28;20331;-45
2022/03/25 03:49:05;;;;;;;;;;;2.60;99.90;;;;;;5093644;28;19908;-46
2022/03/25 03:51:31;;;;;;;;;;;2.60;99.90;;;;;;5093128;28;19961;-46
2022/03/25 03:53:56;;;;;;;;;;;2.60;99.90;;;;;;5093496;28;19915;-46
2022/03/25 03:56:22;;;;;;;;;;;2.60;99.90;;;;;;5093611;28;19999;-45
2022/03/25 03:58:47;;;;;;;;;;;2.60;99.90;;;;;;5092826;28;20352;-45
2022/03/25 04:01:13;;;;;;;;;;;2.70;99.90;;;;;;5093618;28;19969;-46
2022/03/25 04:03:38;;;;;;;;;;;2.70;99.90;;;;;;5093499;28;20518;-46
2022/03/25 04:06:05;;;;;;;;;;;2.70;99.90;;;;;;5092891;28;19915;-45
2022/03/25 04:08:31;;;;;;;;;;;2.60;99.90;;;;;;5093405;28;20278;-46
2022/03/25 04:10:56;;;;;;;;;;;2.60;99.90;;;;;;5093457;28;19912;-46
2022/03/25 04:13:22;;;;;;;;;;;2.60;99.90;;;;;;5092992;28;19908;-45
2022/03/25 04:15:47;;;;;;;;;;;2.60;99.90;;;;;;5093473;28;19908;-46
2022/03/25 04:18:13;;;;;;;;;;;2.60;99.90;;;;;;5093337;28;19974;-47
2022/03/25 04:20:38;;;;;;;;;;;2.60;99.90;;;;;;5092888;28;19908;-46
2022/03/25 04:23:04;;;;;;;;;;;2.70;99.90;;;;;;5093675;28;19916;-46
2022/03/25 04:25:29;;;;;;;;;;;2.70;99.90;;;;;;5092904;28;19912;-46
2022/03/25 04:27:56;;;;;;;;;;;2.70;99.90;;;;;;5093207;28;19916;-46
2022/03/25 04:30:29;;;;;;;;;;;2.70;99.90;;;;;;5093318;28;19912;-47
2022/03/25 04:32:55;;;;;;;;;;;2.80;99.90;;;;;;5092397;28;20382;-45
2022/03/25 04:35:21;;;;;;;;;;;2.80;99.90;;;;;;5093238;28;19908;-47
2022/03/25 04:37:47;;;;;;;;;;;2.70;99.90;;;;;;5093175;28;20031;-47
2022/03/25 04:40:15;;;;;;;;;;;2.70;99.90;;;;;;5092753;28;20015;-46
2022/03/25 04:42:41;;;;;;;;;;;2.80;99.90;;;;;;5093114;28;20367;-47
2022/03/25 04:45:06;;;;;;;;;;;2.70;99.90;;;;;;5093299;28;19908;-46
2022/03/25 04:47:32;;;;;;;;;;;2.80;99.90;;;;;;5092637;28;20378;-45
2022/03/25 04:49:57;;;;;;;;;;;2.70;99.90;;;;;;5092992;28;19944;-45
2022/03/25 04:52:23;;;;;;;;;;;2.70;99.90;;;;;;5093107;28;19915;-46
2022/03/25 04:54:48;;;;;;;;;;;2.70;99.90;;;;;;5095270;28;19908;-46
2022/03/25 04:57:13;;;;;;;;;;;2.80;99.90;;;;;;5096788;28;20343;-46
2022/03/25 04:59:39;;;;;;;;;;;2.80;99.90;;;;;;5096652;28;20259;-46
2022/03/25 05:02:04;;;;;;;;;;;2.80;99.90;;;;;;5096290;28;19915;-45
2022/03/25 05:04:30;;;;;;;;;;;2.80;99.90;;;;;;5096646;28;19908;-45
2022/03/25 05:06:55;;;;;;;;;;;2.80;99.90;;;;;;5096614;28;19915;-45
2022/03/25 05:09:21;;;;;;;;;;;2.80;99.90;;;;;;5096146;28;19908;-47
2022/03/25 05:11:46;;;;;;;;;;;2.80;99.90;;;;;;5096648;28;20492;-45
2022/03/25 05:14:11;;;;;;;;;;;2.80;99.90;;;;;;5096619;28;20417;-46
2022/03/25 05:16:37;;;;;;;;;;;2.80;99.90;;;;;;5095968;28;20317;-45
2022/03/25 05:19:02;;;;;;;;;;;2.80;99.90;;;;;;5096336;28;20385;-46
2022/03/25 05:21:28;;;;;;;;;;;2.80;99.90;;;;;;5096403;28;19908;-46
2022/03/25 05:23:54;;;;;;;;;;;2.80;99.90;;;;;;5095833;28;19908;-46
2022/03/25 05:26:20;;;;;;;;;;;2.80;99.90;;;;;;5096358;28;19912;-45
2022/03/25 05:28:46;;;;;;;;;;;2.80;99.90;;;;;;5095573;28;19914;-45
2022/03/25 05:31:11;;;;;;;;;;;2.80;99.90;;;;;;5096026;28;19912;-46
2022/03/25 05:33:37;;;;;;;;;;;2.80;99.90;;;;;;5096132;28;19908;-45
2022/03/25 05:36:03;;;;;;;;;;;2.80;99.90;;;;;;5095620;28;19912;-45
2022/03/25 05:38:30;;;;;;;;;;;2.70;99.90;;;;;;5096061;28;19923;-46
2022/03/25 05:40:55;;;;;;;;;;;2.70;99.90;;;;;;5096048;28;20382;-48
2022/03/25 05:43:21;;;;;;;;;;;2.70;99.90;;;;;;5095472;28;19951;-45
2022/03/25 05:45:46;;;;;;;;;;;2.70;99.90;;;;;;5096038;28;19908;-46
2022/03/25 05:48:12;;;;;;;;;;;2.70;99.90;;;;;;5095900;28;19968;-46
2022/03/25 05:50:37;;;;;;;;;;;2.70;99.90;;;;;;5095467;28;19935;-46
2022/03/25 05:53:03;;;;;;;;;;;2.60;99.90;;;;;;5095794;28;19908;-46
2022/03/25 05:55:28;;;;;;;;;;;2.60;99.90;;;;;;5095923;28;19915;-46
2022/03/25 05:57:54;;;;;;;;;;;2.60;99.90;;;;;;5094967;28;19923;-45
2022/03/25 06:00:19;;;;;;;;;;;2.50;99.90;;;;;;5095701;28;19912;-46
2022/03/25 06:02:45;;;;;;;;;;;2.50;99.90;;;;;;5095530;28;19909;-45
2022/03/25 06:05:10;;;;;;;;;;;2.40;99.90;;;;;;5094298;28;20006;-45
2022/03/25 06:07:37;;;;;;;;;;;2.50;99.90;;;;;;5077446;28;19931;-46
2022/03/25 06:10:03;;;;;;;;;;;2.50;99.90;;;;;;5095386;28;19912;-46
2022/03/25 06:12:28;;;;;;;;;;;2.50;99.90;;;;;;5094964;28;19909;-46
2022/03/25 06:14:54;;;;;;;;;;;2.50;99.90;;;;;;5095348;28;20282;-46
2022/03/25 06:17:19;;;;;;;;;;;2.40;99.90;;;;;;5095289;28;19918;-45
2022/03/25 06:19:45;;;;;;;;;;;2.40;99.90;;;;;;5094641;28;19916;-45
2022/03/25 06:22:10;;;;;;;;;;;2.50;99.90;;;;;;5095222;28;19919;-45
2022/03/25 06:24:35;;;;;;;;;;;2.50;99.90;;;;;;5095115;28;19909;-46
2022/03/25 06:27:02;;;;;;;;;;;2.50;99.90;;;;;;5094525;28;19908;-47
2022/03/25 06:29:27;;;;;;;;;;;2.50;99.90;;;;;;5095127;28;19916;-45
2022/03/25 06:31:53;;;;;;;;;;;2.60;99.90;;;;;;5094587;28;19920;-46
2022/03/25 06:34:20;;;;;;;;;;;2.60;99.90;;;;;;5094523;28;19931;-45
2022/03/25 06:36:47;;;;;;;;;;;2.60;99.90;;;;;;5094975;28;19908;-47
2022/03/25 06:39:12;;;;;;;;;;;2.70;99.90;;;;;;5094232;28;20294;-46
2022/03/25 06:41:38;;;;;;;;;;;2.70;99.90;;;;;;5094845;28;19915;-46
2022/03/25 06:44:04;;;;;;;;;;;2.80;99.90;;;;;;5094747;28;19908;-46
2022/03/25 06:46:29;;;;;;;;;;;2.90;99.90;;;;;;5076109;28;20379;-45
2022/03/25 06:48:55;;;;;;;;;;;3.00;99.90;;;;;;5094629;28;19912;-45
2022/03/25 06:51:20;;;;;;;;;;;3.00;99.90;;;;;;5094691;28;19915;-46
2022/03/25 06:53:46;;;;;;;;;;;3.10;99.90;;;;;;5094009;28;19914;-45
2022/03/25 06:56:11;;;;;;;;;;;3.20;99.90;;;;;;5076464;28;19912;-47
2022/03/25 06:58:37;;;;;;;;;;;3.30;99.90;;;;;;5094344;28;19916;-46
2022/03/25 07:01:03;;;;;;;;;;;3.40;99.90;;;;;;5093762;28;19915;-46
2022/03/25 07:03:29;;;;;;;;;;;3.60;99.90;;;;;;5094457;28;19912;-46
2022/03/25 07:05:55;;;;;;;;;;;3.70;99.90;;;;;;5094436;28;19950;-45
2022/03/25 07:08:21;;;;;;;;;;;3.80;99.90;;;;;;5093890;28;19957;-46
2022/03/25 07:10:46;;;;;;;;;;;3.90;99.90;;;;;;5094159;28;19998;-45
2022/03/25 07:13:12;;;;;;;;;;;4.10;99.90;;;;;;5094288;28;19908;-46
2022/03/25 07:15:37;;;;;;;;;;;4.20;99.90;;;;;;5093742;28;19913;-47
2022/03/25 07:18:03;;;;;;;;;;;4.40;99.90;;;;;;5094167;28;19921;-46
2022/03/25 07:20:29;;;;;;;;;;;4.50;99.90;;;;;;5094284;28;19915;-46
2022/03/25 07:22:54;;;;;;;;;;;4.70;99.90;;;;;;5093482;28;19912;-46
2022/03/25 07:25:20;;;;;;;;;;;4.80;99.90;;;;;;5094102;28;19908;-46
2022/03/25 07:27:46;;;;;;;;;;;5.00;99.90;;;;;;5093969;28;19908;-46
2022/03/25 07:30:13;;;;;;;;;;;5.10;99.90;;;;;;5093413;28;19908;-46
2022/03/25 07:32:38;;;;;;;;;;;5.30;99.90;;;;;;5093633;28;19924;-46
2022/03/25 07:35:04;;;;;;;;;;;5.40;99.90;;;;;;5093840;28;19918;-46
2022/03/25 07:37:29;;;;;;;;;;;5.50;99.90;;;;;;5093370;28;19912;-46
2022/03/25 07:39:55;;;;;;;;;;;5.80;99.90;;;;;;5093839;28;20003;-46
2022/03/25 07:42:20;;;;;;;;;;;5.80;99.90;;;;;;5093228;28;19908;-47
2022/03/25 07:44:46;;;;;;;;;;;6.00;99.90;;;;;;5093734;28;19908;-46
2022/03/25 07:47:13;;;;;;;;;;;6.10;99.90;;;;;;5093704;28;19909;-47
2022/03/25 07:49:39;;;;;;;;;;;6.20;99.90;;;;;;5093206;28;20489;-47
2022/03/25 07:52:07;;;;;;;;;;;6.40;99.90;;;;;;5093618;28;19984;-47
2022/03/25 07:54:32;;;;;;;;;;;6.50;99.90;;;;;;5093746;28;19908;-45
2022/03/25 07:56:58;;;;;;;;;;;6.70;99.90;;;;;;5093054;28;19999;-46
2022/03/25 07:59:24;;;;;;;;;;;6.80;99.90;;;;;;5093454;28;20371;-46
2022/03/25 08:01:52;;;;;;;;;;;7.00;99.90;;;;;;5093481;28;19908;-47
2022/03/25 08:04:18;;;;;;;;;;;7.20;99.90;;;;;;5092993;28;20385;-47
2022/03/25 08:06:43;;;;;;;;;;;7.30;99.90;;;;;;5093585;28;19908;-47
2022/03/25 08:09:09;;;;;;;;;;;7.50;99.90;;;;;;5093640;28;19908;-47
2022/03/25 08:11:34;;;;;;;;;;;7.70;99.90;;;;;;5093153;28;19915;-46
2022/03/25 08:13:59;;;;;;;;;;;7.90;99.90;;;;;;5093259;28;19919;-46
2022/03/25 08:16:25;;;;;;;;;;;8.10;99.90;;;;;;5093509;28;19912;-47
2022/03/25 08:18:50;;;;;;;;;;;8.20;99.90;;;;;;5092760;28;20025;-46
2022/03/25 08:21:16;;;;;;;;;;;8.30;99.90;;;;;;5093452;28;19946;-47
2022/03/25 08:29:11;;;;;;;;;;;8.70;99.90;;;;;;5095425;28;19923;-48
2022/03/25 08:31:36;;;;;;;;;;;8.80;99.90;;;;;;5096573;28;19973;-47
2022/03/25 08:34:03;;;;;;;;;;;9.00;99.90;;;;;;5097378;28;19911;-46
2022/03/25 08:36:29;;;;;;;;;;;9.10;99.90;;;;;;5097392;28;19912;-46
2022/03/25 08:38:54;;;;;;;;;;;9.20;99.90;;;;;;5096514;28;19927;-48
2022/03/25 08:41:20;;;;;;;;;;;9.40;99.90;;;;;;5097250;28;19916;-48
2022/03/25 08:43:47;;;;;;;;;;;9.50;99.90;;;;;;5097161;28;20362;-47
2022/03/25 08:46:13;;;;;;;;;;;9.60;99.90;;;;;;5096723;28;19915;-47
2022/03/25 08:48:39;;;;;;;;;;;9.80;99.90;;;;;;5097074;28;20282;-47
2022/03/25 08:51:05;;;;;;;;;;;9.90;99.90;;;;;;5096962;28;19961;-47
2022/03/25 08:53:30;;;;;;;;;;;10.00;99.90;;;;;;5096500;28;20002;-47
2022/03/25 08:55:56;;;;;;;;;;;10.10;99.90;;;;;;5096814;28;19955;-48
2022/03/25 08:58:21;;;;;;;;;;;10.20;99.90;;;;;;5096898;28;19916;-48
2022/03/25 09:00:47;;;;;;;;;;;10.30;99.90;;;;;;5096246;28;19909;-48
2022/03/25 09:03:12;;;;;;;;;;;10.40;99.90;;;;;;5096875;28;19951;-47
2022/03/25 09:05:38;;;;;;;;;;;10.60;99.90;;;;;;5096552;28;19908;-48
2022/03/25 09:08:04;;;;;;;;;;;10.60;99.90;;;;;;5096088;28;19915;-48
2022/03/25 09:10:29;;;;;;;;;;;10.70;99.90;;;;;;5096651;28;20389;-48
2022/03/25 09:12:55;;;;;;;;;;;10.90;99.90;;;;;;5096551;28;19909;-47
2022/03/25 09:15:22;;;;;;;;;;;11.00;99.90;;;;;;5096059;28;19912;-47
2022/03/25 09:17:49;;;;;;;;;;;11.20;99.90;;;;;;5096383;28;19955;-48
2022/03/25 09:20:14;;;;;;;;;;;11.30;99.90;;;;;;5096504;28;19912;-47
2022/03/25 09:22:40;;;;;;;;;;;11.50;99.90;;;;;;5095899;28;19913;-47
2022/03/25 09:25:07;;;;;;;;;;;11.70;99.90;;;;;;5096351;28;20397;-47
2022/03/25 09:27:33;;;;;;;;;;;11.70;99.90;;;;;;5096367;28;19948;-49
2022/03/25 09:29:59;;;;;;;;;;;11.80;99.90;;;;;;5095585;28;19952;-47
2022/03/25 09:32:24;;;;;;;;;;;11.90;99.90;;;;;;5095906;28;19920;-47
2022/03/25 09:35:08;;;;;;;;;;;12.00;99.90;;;;;;5095670;28;19916;-51
2022/03/25 09:37:37;;;;;;;;;;;12.10;99.90;;;;;;5096053;28;19954;-47
2022/03/25 09:40:04;;;;;;;;;;;12.10;99.90;;;;;;5094986;28;19912;-48
2022/03/25 09:42:32;;;;;;;;;;;12.20;99.90;;;;;;5095500;28;19916;-48
2022/03/25 09:44:57;;;;;;;;;;;12.30;99.90;;;;;;5095989;28;19919;-48
2022/03/25 09:47:23;;;;;;;;;;;12.50;99.90;;;;;;5096084;28;20396;-48
2022/03/25 09:49:51;;;;;;;;;;;12.50;97.60;;;;;;5095274;28;19952;-48
2022/03/25 09:52:18;;;;;;;;;;;12.60;99.90;;;;;;5095836;28;19912;-48
2022/03/25 09:54:44;;;;;;;;;;;12.80;99.90;;;;;;5095698;28;19916;-50
2022/03/25 09:57:09;;;;;;;;;;;12.90;99.90;;;;;;5095380;28;19908;-51
2022/03/25 09:59:34;;;;;;;;;;;12.90;94.40;;;;;;5095645;28;19916;-47
2022/03/25 10:02:00;;;;;;;;;;;13.00;96.80;;;;;;5095575;28;19919;-48
2022/03/25 10:04:58;;;;;;;;;;;13.10;99.40;;;;;;5095074;28;19908;-48
2022/03/25 10:07:33;;;;;;;;;;;13.20;95.00;;;;;;5079412;28;20328;-48
2022/03/25 10:10:07;;;;;;;;;;;13.30;96.50;;;;;;5095143;28;19908;-51
2022/03/25 10:12:32;;;;;;;;;;;13.40;97.70;;;;;;5095550;28;20357;-50
2022/03/25 10:15:16;;;;;;;;;;;13.70;98.50;;;;;;5095295;28;20001;-48
2022/03/25 10:17:49;;;;;;;;;;;13.90;96.20;;;;;;5094612;28;20379;-52
2022/03/25 10:20:14;;;;;;;;;;;14.00;85.90;;;;;;5095447;28;19919;-50
2022/03/25 10:22:55;;;;;;;;;;;14.10;92.10;;;;;;5095168;28;19919;-51
2022/03/25 10:25:30;;;;;;;;;;;14.20;96.20;;;;;;5094738;28;19992;-47
2022/03/25 10:27:56;;;;;;;;;;;14.40;95.40;;;;;;5095203;28;19987;-48
2022/03/25 10:30:33;;;;;;;;;;;14.40;77.40;;;;;;5095072;28;19951;-50
2022/03/25 10:33:06;;;;;;;;;;;14.50;85.40;;;;;;5094226;28;19924;-48
2022/03/25 10:35:31;;;;;;;;;;;14.60;89.70;;;;;;5095028;28;19908;-47
2022/03/25 10:37:58;;;;;;;;;;;14.80;84.50;;;;;;5094640;28;19919;-49
2022/03/25 10:40:23;;;;;;;;;;;14.90;78.70;;;;;;5094326;28;20317;-48
2022/03/25 10:43:09;;;;;;;;;;;14.90;69.40;;;;;;5094786;28;19908;-48
2022/03/25 10:45:41;;;;;;;;;;;14.90;76.80;;;;;;5094238;28;20363;-49
2022/03/25 10:48:10;;;;;;;;;;;15.00;77.00;;;;;;5094797;28;19912;-47
2022/03/25 10:50:53;;;;;;;;;;;15.10;80.40;;;;;;5094848;28;19915;-50
2022/03/25 10:53:20;;;;;;;;;;;15.20;81.80;;;;;;5093983;28;19912;-49
2022/03/25 10:55:52;;;;;;;;;;;15.30;71.70;;;;;;5094730;28;19998;-52
2022/03/25 10:58:17;;;;;;;;;;;15.40;74.30;;;;;;5094650;28;19923;-47
2022/03/25 11:00:43;;;;;;;;;;;15.60;74.80;;;;;;5093994;28;19908;-48
2022/03/25 11:03:09;;;;;;;;;;;15.60;76.30;;;;;;5094655;28;19939;-49
2022/03/25 11:05:34;;;;;;;;;;;15.70;67.20;;;;;;5094433;28;20256;-48
2022/03/25 11:08:00;;;;;;;;;;;15.70;68.60;;;;;;5093861;28;19966;-48
2022/03/25 11:10:25;;;;;;;;;;;15.80;61.50;;;;;;5094353;28;20341;-46
2022/03/25 11:12:51;;;;;;;;;;;15.80;64.30;;;;;;5094150;28;19908;-47
2022/03/25 11:15:19;;;;;;;;;;;16.00;62.70;;;;;;5093767;28;19908;-47
2022/03/25 11:17:45;;;;;;;;;;;16.10;66.30;;;;;;5094120;28;19916;-47
2022/03/25 11:20:12;;;;;;;;;;;16.20;61.00;;;;;;5094123;28;19908;-47
2022/03/25 11:22:41;;;;;;;;;;;16.30;64.40;;;;;;5093692;28;19915;-47
2022/03/25 11:25:10;;;;;;;;;;;16.30;60.00;;;;;;5094109;28;20026;-47
2022/03/25 11:27:37;;;;;;;;;;;16.40;60.70;;;;;;5093616;28;19916;-46
2022/03/25 11:30:05;;;;;;;;;;;16.60;63.00;;;;;;5093946;28;19948;-49
2022/03/25 11:32:30;;;;;;;;;;;16.60;65.20;;;;;;5093594;28;19973;-47
2022/03/25 11:34:55;;;;;;;;;;;16.70;63.90;;;;;;5093372;28;19908;-48
2022/03/25 11:37:31;;;;;;;;;;;16.80;59.30;;;;;;5093924;28;19962;-48
2022/03/25 11:40:35;;;;;;;;;;;16.90;60.00;;;;;;5093680;28;20228;-47
2022/03/25 11:43:11;;;;;;;;;;;16.90;55.50;;;;;;5092775;28;20287;-47
2022/03/25 11:45:37;;;;;;;;;;;17.10;58.10;;;;;;5093911;28;20356;-48
2022/03/25 11:48:03;;;;;;;;;;;17.20;57.10;;;;;;5093681;28;19908;-47
2022/03/25 11:50:29;;;;;;;;;;;17.20;56.30;;;;;;5093249;28;19912;-47
2022/03/25 11:52:55;;;;;;;;;;;17.20;55.70;;;;;;5093572;28;19908;-47
2022/03/25 11:55:21;;;;;;;;;;;17.40;55.90;;;;;;5093715;28;20259;-47
2022/03/25 11:57:46;;;;;;;;;;;17.50;57.50;;;;;;5092981;28;19943;-46
2022/03/25 12:00:21;;;;;;;;;;;17.50;56.90;;;;;;5093611;28;20354;-47
2022/03/25 12:02:59;;;;;;;;;;;17.40;57.80;;;;;;5092668;28;19908;-47
2022/03/25 12:05:24;;;;;;;;;;;17.50;60.50;;;;;;5093425;28;19908;-46
2022/03/25 12:08:08;;;;;;;;;;;17.70;59.20;;;;;;5093326;28;19913;-46
2022/03/25 12:10:44;;;;;;;;;;;17.90;57.80;;;;;;5093034;28;19915;-47
2022/03/25 12:13:09;;;;;;;;;;;17.90;56.50;;;;;;5093398;28;20267;-47
2022/03/25 12:15:39;;;;;;;;;;;17.90;58.80;;;;;;5093402;28;20386;-48
2022/03/25 12:18:23;;;;;;;;;;;17.90;53.10;;;;;;5092833;28;20018;-49
2022/03/25 12:20:49;;;;;;;;;;;18.00;55.50;;;;;;5093739;28;20380;-48
2022/03/25 12:23:14;;;;;;;;;;;18.10;55.90;;;;;;5093489;28;19934;-48
2022/03/25 12:25:42;;;;;;;;;;;18.10;55.00;;;;;;5092925;28;20412;-48
2022/03/25 12:28:08;;;;;;;;;;;18.20;54.70;;;;;;5093177;28;20359;-47
2022/03/25 12:30:35;;;;;;;;;;;18.30;51.70;;;;;;5093384;28;19919;-47
2022/03/25 12:33:08;;;;;;;;;;;18.30;54.20;;;;;;5092300;28;19951;-48
2022/03/25 12:35:35;;;;;;;;;;;18.40;50.80;;;;;;5093375;28;19912;-51
2022/03/25 12:38:21;;;;;;;;;;;18.40;51.90;;;;;;5092552;28;19974;-48
2022/03/25 12:40:48;;;;;;;;;;;18.40;51.10;;;;;;5093124;28;19916;-48
2022/03/25 12:43:13;;;;;;;;;;;18.50;52.00;;;;;;5093245;28;20389;-49
2022/03/25 12:45:41;;;;;;;;;;;18.60;51.50;;;;;;5092704;28;19908;-48
2022/03/25 12:48:13;;;;;;;;;;;18.70;51.30;;;;;;5093277;28;19912;-47
2022/03/25 12:50:43;;;;;;;;;;;18.60;50.00;;;;;;5093139;28;19908;-48
2022/03/25 12:53:08;;;;;;;;;;;18.50;49.20;;;;;;5092528;28;19912;-49
2022/03/25 12:55:34;;;;;;;;;;;18.60;50.30;;;;;;5093267;28;20354;-48
2022/03/25 12:58:05;;;;;;;;;;;18.60;51.10;;;;;;5093040;28;19920;-48
2022/03/25 13:00:32;;;;;;;;;;;18.80;51.00;;;;;;5092584;28;19945;-48
2022/03/25 13:02:58;;;;;;;;;;;18.80;50.40;;;;;;5093062;28;19908;-49
2022/03/25 13:05:25;;;;;;;;;;;18.80;51.10;;;;;;5092981;28;19999;-48
2022/03/25 13:07:56;;;;;;;;;;;18.80;50.00;;;;;;5092378;28;20427;-47
2022/03/25 13:10:22;;;;;;;;;;;18.80;47.80;;;;;;5093029;28;19909;-50
2022/03/25 13:12:51;;;;;;;;;;;19.00;50.20;;;;;;5092781;28;19908;-48
2022/03/25 13:15:16;;;;;;;;;;;19.20;51.20;;;;;;5094516;28;19999;-49
2022/03/25 13:17:43;;;;;;;;;;;19.30;47.40;;;;;;5096419;28;19999;-48
2022/03/25 13:20:16;;;;;;;;;;;19.30;48.60;;;;;;5095951;28;19908;-51
2022/03/25 13:22:55;;;;;;;;;;;19.40;48.10;;;;;;5096474;28;19908;-50
2022/03/25 13:25:26;;;;;;;;;;;19.50;49.80;;;;;;5096457;28;20002;-48
2022/03/25 13:27:52;;;;;;;;;;;19.60;47.10;;;;;;5095838;28;19965;-50
2022/03/25 13:30:18;;;;;;;;;;;19.70;45.60;;;;;;5096384;28;19912;-48
2022/03/25 13:32:43;;;;;;;;;;;19.90;47.20;;;;;;5096000;28;20244;-51
2022/03/25 13:35:13;;;;;;;;;;;20.00;47.40;;;;;;5095666;28;19908;-51
2022/03/25 13:37:39;;;;;;;;;;;20.40;46.80;;;;;;5095958;28;19908;-48
2022/03/25 13:40:23;;;;;;;;;;;20.60;45.60;;;;;;5095992;28;19969;-50
2022/03/25 13:42:52;;;;;;;;;;;20.80;45.90;;;;;;5095509;28;19928;-51
2022/03/25 13:45:18;;;;;;;;;;;21.00;45.20;;;;;;5095988;28;19912;-50
2022/03/25 13:47:43;;;;;;;;;;;21.10;46.50;;;;;;5096037;28;19919;-49
2022/03/25 13:50:10;;;;;;;;;;;21.20;44.20;;;;;;5095360;28;19908;-50
2022/03/25 13:52:35;;;;;;;;;;;21.20;42.40;;;;;;5096018;28;19915;-48
2022/03/25 13:55:14;;;;;;;;;;;21.40;44.80;;;;;;5095790;28;19998;-52
2022/03/25 13:57:39;;;;;;;;;;;21.50;43.20;;;;;;5095719;28;19912;-49
2022/03/25 14:00:10;;;;;;;;;;;21.70;44.40;;;;;;5095718;28;19927;-51
2022/03/25 14:02:40;;;;;;;;;;;21.90;45.30;;;;;;5095244;28;20016;-53
2022/03/25 14:05:12;;;;;;;;;;;22.00;41.50;;;;;;5095500;28;19961;-52
2022/03/25 14:07:38;;;;;;;;;;;22.30;39.70;;;;;;5095519;28;20366;-51
2022/03/25 14:10:05;;;;;;;;;;;22.60;40.80;;;;;;5094845;28;19919;-51
2022/03/25 14:12:31;;;;;;;;;;;22.80;45.40;;;;;;5095458;28;19912;-53
2022/03/25 14:15:04;;;;;;;;;;;22.90;44.10;;;;;;5095330;28;19935;-51
2022/03/25 14:17:30;;;;;;;;;;;22.80;36.50;;;;;;5094944;28;19908;-52
2022/03/25 14:20:00;;;;;;;;;;;23.20;42.80;;;;;;5095147;28;20363;-52
2022/03/25 14:22:25;;;;;;;;;;;23.20;41.70;;;;;;5095318;28;19908;-52
2022/03/25 14:24:50;;;;;;;;;;;23.30;41.90;;;;;;5094679;28;20026;-51
2022/03/25 14:27:16;;;;;;;;;;;23.30;39.60;;;;;;5094522;28;19961;-52
2022/03/25 14:29:42;;;;;;;;;;;23.40;39.20;;;;;;5095156;28;19912;-52